sensor_id;sensor_type;location;lat;lon;timestamp;P1;durP1;ratioP1;P2;durP2;ratioP2
70545;SDS011;58098;51.680;5.134;2022-09-09T00:00:55;3.25;;;2.33;;
70545;SDS011;58098;51.680;5.134;2022-09-09T00:03:31;2.40;;;2.03;;
70545;SDS011;58098;51.680;5.134;2022-09-09T00:06:11;5.25;;;2.63;;
70545;SDS011;58098;51.680;5.134;2022-09-09T00:08:48;7.88;;;2.67;;
70545;SDS011;58098;51.680;5.134;2022-09-09T00:11:17;6.00;;;2.50;;
70545;SDS011;58098;51.680;5.134;2022-09-09T00:13:51;3.03;;;2.40;;
70545;SDS011;58098;51.680;5.134;2022-09-09T00:16:19;4.05;;;2.97;;
70545;SDS011;58098;51.680;5.134;2022-09-09T00:18:56;4.55;;;2.65;;
70545;SDS011;58098;51.680;5.134;2022-09-09T00:21:24;4.13;;;2.80;;
70545;SDS011;58098;51.680;5.134;2022-09-09T00:23:52;4.70;;;2.80;;
70545;SDS011;58098;51.680;5.134;2022-09-09T00:28:56;7.88;;;3.28;;
70545;SDS011;58098;51.680;5.134;2022-09-09T00:31:26;5.20;;;2.83;;
70545;SDS011;58098;51.680;5.134;2022-09-09T00:33:52;4.68;;;2.72;;
70545;SDS011;58098;51.680;5.134;2022-09-09T00:36:20;5.53;;;2.73;;
70545;SDS011;58098;51.680;5.134;2022-09-09T00:38:48;6.05;;;2.80;;
70545;SDS011;58098;51.680;5.134;2022-09-09T00:41:18;5.63;;;3.03;;
70545;SDS011;58098;51.680;5.134;2022-09-09T00:43:46;8.13;;;3.17;;
70545;SDS011;58098;51.680;5.134;2022-09-09T00:51:15;4.60;;;3.38;;
70545;SDS011;58098;51.680;5.134;2022-09-09T00:54:04;6.70;;;3.40;;
70545;SDS011;58098;51.680;5.134;2022-09-09T00:56:32;7.55;;;3.65;;
70545;SDS011;58098;51.680;5.134;2022-09-09T00:59:12;7.32;;;3.17;;
70545;SDS011;58098;51.680;5.134;2022-09-09T01:01:41;10.93;;;3.70;;
70545;SDS011;58098;51.680;5.134;2022-09-09T01:04:11;8.23;;;3.80;;
70545;SDS011;58098;51.680;5.134;2022-09-09T01:06:40;7.72;;;3.47;;
70545;SDS011;58098;51.680;5.134;2022-09-09T01:11:51;8.73;;;3.63;;
70545;SDS011;58098;51.680;5.134;2022-09-09T01:16:45;6.80;;;3.87;;
70545;SDS011;58098;51.680;5.134;2022-09-09T01:19:12;8.20;;;4.47;;
70545;SDS011;58098;51.680;5.134;2022-09-09T01:26:46;6.10;;;4.40;;
70545;SDS011;58098;51.680;5.134;2022-09-09T01:29:12;8.82;;;4.75;;
70545;SDS011;58098;51.680;5.134;2022-09-09T01:31:57;9.30;;;4.83;;
70545;SDS011;58098;51.680;5.134;2022-09-09T01:34:24;6.80;;;4.50;;
70545;SDS011;58098;51.680;5.134;2022-09-09T01:36:56;5.88;;;4.05;;
70545;SDS011;58098;51.680;5.134;2022-09-09T01:39:22;8.95;;;4.57;;
70545;SDS011;58098;51.680;5.134;2022-09-09T01:41:47;11.50;;;4.47;;
70545;SDS011;58098;51.680;5.134;2022-09-09T01:44:13;10.50;;;5.03;;
70545;SDS011;58098;51.680;5.134;2022-09-09T01:46:38;9.73;;;4.60;;
70545;SDS011;58098;51.680;5.134;2022-09-09T01:49:03;9.03;;;4.43;;
70545;SDS011;58098;51.680;5.134;2022-09-09T01:51:30;7.00;;;3.90;;
70545;SDS011;58098;51.680;5.134;2022-09-09T01:53:55;10.70;;;4.23;;
70545;SDS011;58098;51.680;5.134;2022-09-09T02:01:15;9.23;;;4.60;;
70545;SDS011;58098;51.680;5.134;2022-09-09T02:03:44;9.48;;;4.00;;
70545;SDS011;58098;51.680;5.134;2022-09-09T02:06:19;10.90;;;4.20;;
70545;SDS011;58098;51.680;5.134;2022-09-09T02:08:50;4.23;;;2.97;;
70545;SDS011;58098;51.680;5.134;2022-09-09T02:11:16;10.70;;;3.42;;
70545;SDS011;58098;51.680;5.134;2022-09-09T02:13:43;7.97;;;3.72;;
70545;SDS011;58098;51.680;5.134;2022-09-09T02:18:39;9.93;;;4.10;;
70545;SDS011;58098;51.680;5.134;2022-09-09T02:21:05;7.00;;;4.25;;
70545;SDS011;58098;51.680;5.134;2022-09-09T02:23:31;8.00;;;3.83;;
70545;SDS011;58098;51.680;5.134;2022-09-09T02:25:57;8.70;;;3.92;;
70545;SDS011;58098;51.680;5.134;2022-09-09T02:28:23;8.30;;;3.85;;
70545;SDS011;58098;51.680;5.134;2022-09-09T02:30:50;7.93;;;3.90;;
70545;SDS011;58098;51.680;5.134;2022-09-09T02:33:20;10.02;;;4.30;;
70545;SDS011;58098;51.680;5.134;2022-09-09T02:35:48;10.25;;;4.07;;
70545;SDS011;58098;51.680;5.134;2022-09-09T02:38:14;5.68;;;3.88;;
70545;SDS011;58098;51.680;5.134;2022-09-09T02:40:43;8.98;;;4.30;;
70545;SDS011;58098;51.680;5.134;2022-09-09T02:43:08;12.52;;;3.85;;
70545;SDS011;58098;51.680;5.134;2022-09-09T02:45:41;7.10;;;3.80;;
70545;SDS011;58098;51.680;5.134;2022-09-09T02:48:27;14.57;;;4.13;;
70545;SDS011;58098;51.680;5.134;2022-09-09T02:51:13;8.63;;;4.18;;
70545;SDS011;58098;51.680;5.134;2022-09-09T02:54:04;7.53;;;4.23;;
70545;SDS011;58098;51.680;5.134;2022-09-09T02:56:27;10.57;;;4.18;;
70545;SDS011;58098;51.680;5.134;2022-09-09T02:58:54;10.18;;;4.38;;
70545;SDS011;58098;51.680;5.134;2022-09-09T03:01:20;6.60;;;3.90;;
70545;SDS011;58098;51.680;5.134;2022-09-09T03:03:45;10.35;;;4.00;;
70545;SDS011;58098;51.680;5.134;2022-09-09T03:06:11;9.10;;;3.80;;
70545;SDS011;58098;51.680;5.134;2022-09-09T03:08:37;8.00;;;4.00;;
70545;SDS011;58098;51.680;5.134;2022-09-09T03:11:02;8.30;;;4.27;;
70545;SDS011;58098;51.680;5.134;2022-09-09T03:13:27;8.60;;;3.77;;
70545;SDS011;58098;51.680;5.134;2022-09-09T03:15:52;7.20;;;3.70;;
70545;SDS011;58098;51.680;5.134;2022-09-09T03:18:17;7.57;;;3.90;;
70545;SDS011;58098;51.680;5.134;2022-09-09T03:20:42;8.67;;;3.73;;
70545;SDS011;58098;51.680;5.134;2022-09-09T03:23:08;8.57;;;3.37;;
70545;SDS011;58098;51.680;5.134;2022-09-09T03:25:34;8.45;;;3.65;;
70545;SDS011;58098;51.680;5.134;2022-09-09T03:28:00;8.27;;;3.47;;
70545;SDS011;58098;51.680;5.134;2022-09-09T03:30:25;12.97;;;3.67;;
70545;SDS011;58098;51.680;5.134;2022-09-09T03:32:51;12.17;;;4.13;;
70545;SDS011;58098;51.680;5.134;2022-09-09T03:35:17;10.00;;;3.85;;
70545;SDS011;58098;51.680;5.134;2022-09-09T03:37:42;7.63;;;3.60;;
70545;SDS011;58098;51.680;5.134;2022-09-09T03:40:07;10.13;;;3.70;;
70545;SDS011;58098;51.680;5.134;2022-09-09T03:42:34;9.52;;;3.80;;
70545;SDS011;58098;51.680;5.134;2022-09-09T03:45:01;13.45;;;3.85;;
70545;SDS011;58098;51.680;5.134;2022-09-09T03:47:27;7.97;;;3.70;;
70545;SDS011;58098;51.680;5.134;2022-09-09T03:49:52;10.00;;;4.07;;
70545;SDS011;58098;51.680;5.134;2022-09-09T03:52:17;10.13;;;3.90;;
70545;SDS011;58098;51.680;5.134;2022-09-09T03:54:43;10.77;;;4.60;;
70545;SDS011;58098;51.680;5.134;2022-09-09T03:57:09;10.47;;;4.33;;
70545;SDS011;58098;51.680;5.134;2022-09-09T03:59:35;11.10;;;4.03;;
70545;SDS011;58098;51.680;5.134;2022-09-09T04:02:00;13.57;;;4.63;;
70545;SDS011;58098;51.680;5.134;2022-09-09T04:04:25;9.32;;;3.95;;
70545;SDS011;58098;51.680;5.134;2022-09-09T04:06:53;7.30;;;3.95;;
70545;SDS011;58098;51.680;5.134;2022-09-09T04:09:19;12.80;;;4.27;;
70545;SDS011;58098;51.680;5.134;2022-09-09T04:11:44;10.83;;;4.30;;
70545;SDS011;58098;51.680;5.134;2022-09-09T04:14:10;10.68;;;3.92;;
70545;SDS011;58098;51.680;5.134;2022-09-09T04:16:35;9.90;;;4.27;;
70545;SDS011;58098;51.680;5.134;2022-09-09T04:19:02;10.18;;;4.13;;
70545;SDS011;58098;51.680;5.134;2022-09-09T04:21:29;17.20;;;4.53;;
70545;SDS011;58098;51.680;5.134;2022-09-09T04:23:54;15.27;;;4.27;;
70545;SDS011;58098;51.680;5.134;2022-09-09T04:26:19;10.20;;;4.10;;
70545;SDS011;58098;51.680;5.134;2022-09-09T04:28:45;13.23;;;4.60;;
70545;SDS011;58098;51.680;5.134;2022-09-09T04:31:12;12.03;;;4.70;;
70545;SDS011;58098;51.680;5.134;2022-09-09T04:33:39;14.15;;;4.32;;
70545;SDS011;58098;51.680;5.134;2022-09-09T04:36:05;12.47;;;4.57;;
70545;SDS011;58098;51.680;5.134;2022-09-09T04:38:30;12.48;;;4.72;;
70545;SDS011;58098;51.680;5.134;2022-09-09T04:40:56;13.37;;;4.53;;
70545;SDS011;58098;51.680;5.134;2022-09-09T04:43:22;21.07;;;5.13;;
70545;SDS011;58098;51.680;5.134;2022-09-09T04:45:48;17.27;;;4.90;;
70545;SDS011;58098;51.680;5.134;2022-09-09T04:48:14;15.73;;;4.60;;
70545;SDS011;58098;51.680;5.134;2022-09-09T04:50:39;14.30;;;4.93;;
70545;SDS011;58098;51.680;5.134;2022-09-09T04:53:05;13.35;;;5.07;;
70545;SDS011;58098;51.680;5.134;2022-09-09T04:55:31;13.37;;;5.37;;
70545;SDS011;58098;51.680;5.134;2022-09-09T04:57:56;11.90;;;4.60;;
70545;SDS011;58098;51.680;5.134;2022-09-09T05:00:22;11.57;;;5.20;;
70545;SDS011;58098;51.680;5.134;2022-09-09T05:02:47;13.33;;;4.97;;
70545;SDS011;58098;51.680;5.134;2022-09-09T05:05:12;14.03;;;4.37;;
70545;SDS011;58098;51.680;5.134;2022-09-09T05:07:38;8.13;;;4.67;;
70545;SDS011;58098;51.680;5.134;2022-09-09T05:10:03;10.87;;;4.50;;
70545;SDS011;58098;51.680;5.134;2022-09-09T05:12:30;15.50;;;5.13;;
70545;SDS011;58098;51.680;5.134;2022-09-09T05:14:56;17.40;;;4.82;;
70545;SDS011;58098;51.680;5.134;2022-09-09T05:17:21;11.77;;;4.90;;
70545;SDS011;58098;51.680;5.134;2022-09-09T05:19:46;13.60;;;5.27;;
70545;SDS011;58098;51.680;5.134;2022-09-09T05:22:12;17.20;;;5.20;;
70545;SDS011;58098;51.680;5.134;2022-09-09T05:24:37;19.07;;;4.60;;
70545;SDS011;58098;51.680;5.134;2022-09-09T05:27:03;18.40;;;5.57;;
70545;SDS011;58098;51.680;5.134;2022-09-09T05:29:30;12.30;;;5.47;;
70545;SDS011;58098;51.680;5.134;2022-09-09T05:31:58;15.65;;;5.38;;
70545;SDS011;58098;51.680;5.134;2022-09-09T05:34:23;17.60;;;5.15;;
70545;SDS011;58098;51.680;5.134;2022-09-09T05:36:48;13.73;;;5.17;;
70545;SDS011;58098;51.680;5.134;2022-09-09T05:39:13;25.43;;;5.40;;
70545;SDS011;58098;51.680;5.134;2022-09-09T05:41:38;14.37;;;4.97;;
70545;SDS011;58098;51.680;5.134;2022-09-09T05:44:04;16.73;;;5.05;;
70545;SDS011;58098;51.680;5.134;2022-09-09T05:46:30;19.35;;;5.63;;
70545;SDS011;58098;51.680;5.134;2022-09-09T05:48:56;16.40;;;4.80;;
70545;SDS011;58098;51.680;5.134;2022-09-09T05:51:22;22.10;;;5.10;;
70545;SDS011;58098;51.680;5.134;2022-09-09T05:53:49;14.17;;;4.57;;
70545;SDS011;58098;51.680;5.134;2022-09-09T05:56:15;13.20;;;4.70;;
70545;SDS011;58098;51.680;5.134;2022-09-09T05:58:40;23.60;;;5.13;;
70545;SDS011;58098;51.680;5.134;2022-09-09T06:01:13;12.55;;;5.03;;
70545;SDS011;58098;51.680;5.134;2022-09-09T06:03:39;14.73;;;5.28;;
70545;SDS011;58098;51.680;5.134;2022-09-09T06:06:05;17.73;;;5.15;;
70545;SDS011;58098;51.680;5.134;2022-09-09T06:08:31;12.88;;;5.35;;
70545;SDS011;58098;51.680;5.134;2022-09-09T06:11:10;16.97;;;5.27;;
70545;SDS011;58098;51.680;5.134;2022-09-09T06:13:35;14.90;;;5.22;;
70545;SDS011;58098;51.680;5.134;2022-09-09T06:16:04;16.58;;;4.63;;
70545;SDS011;58098;51.680;5.134;2022-09-09T06:18:29;14.20;;;4.47;;
70545;SDS011;58098;51.680;5.134;2022-09-09T06:20:55;16.67;;;4.73;;
70545;SDS011;58098;51.680;5.134;2022-09-09T06:23:20;21.77;;;5.40;;
70545;SDS011;58098;51.680;5.134;2022-09-09T06:25:46;18.20;;;5.10;;
70545;SDS011;58098;51.680;5.134;2022-09-09T06:28:11;14.03;;;4.43;;
70545;SDS011;58098;51.680;5.134;2022-09-09T06:30:36;22.90;;;5.00;;
70545;SDS011;58098;51.680;5.134;2022-09-09T06:33:02;18.27;;;4.87;;
70545;SDS011;58098;51.680;5.134;2022-09-09T06:35:27;21.73;;;5.47;;
70545;SDS011;58098;51.680;5.134;2022-09-09T06:37:53;16.33;;;4.90;;
70545;SDS011;58098;51.680;5.134;2022-09-09T06:40:18;15.93;;;5.03;;
70545;SDS011;58098;51.680;5.134;2022-09-09T06:42:43;22.60;;;4.93;;
70545;SDS011;58098;51.680;5.134;2022-09-09T06:45:08;12.57;;;4.60;;
70545;SDS011;58098;51.680;5.134;2022-09-09T06:47:34;17.53;;;4.70;;
70545;SDS011;58098;51.680;5.134;2022-09-09T06:49:59;23.60;;;5.67;;
70545;SDS011;58098;51.680;5.134;2022-09-09T06:52:24;17.80;;;4.40;;
70545;SDS011;58098;51.680;5.134;2022-09-09T06:54:49;18.48;;;5.10;;
70545;SDS011;58098;51.680;5.134;2022-09-09T06:57:15;18.43;;;5.13;;
70545;SDS011;58098;51.680;5.134;2022-09-09T06:59:40;17.15;;;5.80;;
70545;SDS011;58098;51.680;5.134;2022-09-09T07:02:05;13.50;;;4.80;;
70545;SDS011;58098;51.680;5.134;2022-09-09T07:04:30;12.27;;;4.50;;
70545;SDS011;58098;51.680;5.134;2022-09-09T07:06:55;15.10;;;4.37;;
70545;SDS011;58098;51.680;5.134;2022-09-09T07:09:21;14.13;;;4.30;;
70545;SDS011;58098;51.680;5.134;2022-09-09T07:11:47;14.93;;;3.83;;
70545;SDS011;58098;51.680;5.134;2022-09-09T07:14:12;17.23;;;3.97;;
70545;SDS011;58098;51.680;5.134;2022-09-09T07:16:38;11.38;;;3.30;;
70545;SDS011;58098;51.680;5.134;2022-09-09T07:19:04;14.30;;;3.80;;
70545;SDS011;58098;51.680;5.134;2022-09-09T07:21:30;16.60;;;3.80;;
70545;SDS011;58098;51.680;5.134;2022-09-09T07:23:56;14.18;;;3.50;;
70545;SDS011;58098;51.680;5.134;2022-09-09T07:26:22;10.10;;;3.40;;
70545;SDS011;58098;51.680;5.134;2022-09-09T07:28:48;16.15;;;3.97;;
70545;SDS011;58098;51.680;5.134;2022-09-09T07:31:14;12.00;;;3.50;;
70545;SDS011;58098;51.680;5.134;2022-09-09T07:33:41;13.07;;;3.30;;
70545;SDS011;58098;51.680;5.134;2022-09-09T07:36:07;14.97;;;3.40;;
70545;SDS011;58098;51.680;5.134;2022-09-09T07:38:40;12.38;;;3.40;;
70545;SDS011;58098;51.680;5.134;2022-09-09T07:41:06;13.38;;;3.53;;
70545;SDS011;58098;51.680;5.134;2022-09-09T07:43:33;10.85;;;3.30;;
70545;SDS011;58098;51.680;5.134;2022-09-09T07:45:59;16.50;;;3.20;;
70545;SDS011;58098;51.680;5.134;2022-09-09T07:48:26;8.23;;;3.03;;
70545;SDS011;58098;51.680;5.134;2022-09-09T07:50:51;11.23;;;3.00;;
70545;SDS011;58098;51.680;5.134;2022-09-09T07:53:16;15.27;;;3.40;;
70545;SDS011;58098;51.680;5.134;2022-09-09T07:55:42;9.97;;;2.80;;
70545;SDS011;58098;51.680;5.134;2022-09-09T07:58:07;11.55;;;2.90;;
70545;SDS011;58098;51.680;5.134;2022-09-09T08:00:32;10.63;;;2.93;;
70545;SDS011;58098;51.680;5.134;2022-09-09T08:02:58;8.93;;;2.20;;
70545;SDS011;58098;51.680;5.134;2022-09-09T08:05:25;10.07;;;2.35;;
70545;SDS011;58098;51.680;5.134;2022-09-09T08:07:50;10.23;;;2.87;;
70545;SDS011;58098;51.680;5.134;2022-09-09T08:10:16;11.30;;;3.20;;
70545;SDS011;58098;51.680;5.134;2022-09-09T08:12:41;13.13;;;2.90;;
70545;SDS011;58098;51.680;5.134;2022-09-09T08:15:06;15.27;;;2.77;;
70545;SDS011;58098;51.680;5.134;2022-09-09T08:17:32;9.20;;;2.40;;
70545;SDS011;58098;51.680;5.134;2022-09-09T08:19:57;15.25;;;2.70;;
70545;SDS011;58098;51.680;5.134;2022-09-09T08:22:23;11.40;;;2.40;;
70545;SDS011;58098;51.680;5.134;2022-09-09T08:24:49;8.75;;;2.30;;
70545;SDS011;58098;51.680;5.134;2022-09-09T08:27:14;12.27;;;2.83;;
70545;SDS011;58098;51.680;5.134;2022-09-09T08:29:39;11.20;;;2.80;;
70545;SDS011;58098;51.680;5.134;2022-09-09T08:32:05;10.17;;;2.53;;
70545;SDS011;58098;51.680;5.134;2022-09-09T08:34:30;12.33;;;2.60;;
70545;SDS011;58098;51.680;5.134;2022-09-09T08:36:56;9.23;;;2.45;;
70545;SDS011;58098;51.680;5.134;2022-09-09T08:39:21;12.90;;;2.50;;
70545;SDS011;58098;51.680;5.134;2022-09-09T08:44:37;12.20;;;2.65;;
70545;SDS011;58098;51.680;5.134;2022-09-09T08:47:11;10.53;;;2.70;;
70545;SDS011;58098;51.680;5.134;2022-09-09T08:52:08;10.45;;;2.20;;
70545;SDS011;58098;51.680;5.134;2022-09-09T08:54:37;10.85;;;2.55;;
70545;SDS011;58098;51.680;5.134;2022-09-09T08:57:03;9.97;;;2.70;;
70545;SDS011;58098;51.680;5.134;2022-09-09T08:59:35;9.15;;;2.20;;
70545;SDS011;58098;51.680;5.134;2022-09-09T09:09:57;12.65;;;2.90;;
70545;SDS011;58098;51.680;5.134;2022-09-09T09:12:28;14.07;;;2.60;;
70545;SDS011;58098;51.680;5.134;2022-09-09T09:14:54;9.20;;;2.63;;
70545;SDS011;58098;51.680;5.134;2022-09-09T09:17:23;11.43;;;2.40;;
70545;SDS011;58098;51.680;5.134;2022-09-09T09:19:50;10.45;;;2.28;;
70545;SDS011;58098;51.680;5.134;2022-09-09T09:24:56;12.45;;;2.13;;
70545;SDS011;58098;51.680;5.134;2022-09-09T09:30:22;11.50;;;2.45;;
70545;SDS011;58098;51.680;5.134;2022-09-09T09:32:51;11.18;;;2.65;;
70545;SDS011;58098;51.680;5.134;2022-09-09T09:35:17;11.33;;;2.40;;
70545;SDS011;58098;51.680;5.134;2022-09-09T09:37:43;9.25;;;2.20;;
70545;SDS011;58098;51.680;5.134;2022-09-09T09:40:11;9.43;;;2.20;;
70545;SDS011;58098;51.680;5.134;2022-09-09T09:42:37;12.33;;;2.20;;
70545;SDS011;58098;51.680;5.134;2022-09-09T09:47:58;10.15;;;2.83;;
70545;SDS011;58098;51.680;5.134;2022-09-09T09:50:24;10.00;;;2.20;;
70545;SDS011;58098;51.680;5.134;2022-09-09T09:52:59;10.70;;;2.43;;
70545;SDS011;58098;51.680;5.134;2022-09-09T09:55:25;12.07;;;2.70;;
70545;SDS011;58098;51.680;5.134;2022-09-09T09:57:50;8.77;;;2.43;;
70545;SDS011;58098;51.680;5.134;2022-09-09T10:00:20;11.57;;;2.80;;
70545;SDS011;58098;51.680;5.134;2022-09-09T10:02:46;9.48;;;2.45;;
70545;SDS011;58098;51.680;5.134;2022-09-09T10:05:13;8.95;;;2.70;;
70545;SDS011;58098;51.680;5.134;2022-09-09T10:07:39;15.68;;;3.03;;
70545;SDS011;58098;51.680;5.134;2022-09-09T10:10:05;12.63;;;2.63;;
70545;SDS011;58098;51.680;5.134;2022-09-09T10:17:39;10.67;;;2.50;;
70545;SDS011;58098;51.680;5.134;2022-09-09T10:22:34;8.43;;;2.83;;
70545;SDS011;58098;51.680;5.134;2022-09-09T10:27:33;12.67;;;2.87;;
70545;SDS011;58098;51.680;5.134;2022-09-09T10:30:22;10.98;;;2.83;;
70545;SDS011;58098;51.680;5.134;2022-09-09T10:37:58;8.00;;;2.38;;
70545;SDS011;58098;51.680;5.134;2022-09-09T10:40:33;5.95;;;2.40;;
70545;SDS011;58098;51.680;5.134;2022-09-09T10:48:34;9.77;;;2.70;;
70545;SDS011;58098;51.680;5.134;2022-09-09T10:55:57;9.02;;;2.60;;
70545;SDS011;58098;51.680;5.134;2022-09-09T11:00:51;12.40;;;3.07;;
70545;SDS011;58098;51.680;5.134;2022-09-09T11:03:20;10.38;;;2.83;;
70545;SDS011;58098;51.680;5.134;2022-09-09T11:05:49;9.67;;;2.77;;
70545;SDS011;58098;51.680;5.134;2022-09-09T11:08:21;8.63;;;2.50;;
70545;SDS011;58098;51.680;5.134;2022-09-09T11:13:21;7.03;;;2.20;;
70545;SDS011;58098;51.680;5.134;2022-09-09T11:15:50;9.67;;;3.17;;
70545;SDS011;58098;51.680;5.134;2022-09-09T11:18:19;9.88;;;2.70;;
70545;SDS011;58098;51.680;5.134;2022-09-09T11:20:47;8.90;;;3.13;;
70545;SDS011;58098;51.680;5.134;2022-09-09T11:23:15;8.52;;;3.03;;
70545;SDS011;58098;51.680;5.134;2022-09-09T11:25:49;8.73;;;2.63;;
70545;SDS011;58098;51.680;5.134;2022-09-09T11:28:21;9.80;;;3.08;;
70545;SDS011;58098;51.680;5.134;2022-09-09T11:36:06;9.77;;;2.72;;
70545;SDS011;58098;51.680;5.134;2022-09-09T11:38:46;9.37;;;2.87;;
70545;SDS011;58098;51.680;5.134;2022-09-09T11:41:12;9.50;;;2.72;;
70545;SDS011;58098;51.680;5.134;2022-09-09T11:43:45;6.53;;;2.80;;
70545;SDS011;58098;51.680;5.134;2022-09-09T11:46:11;8.73;;;2.47;;
70545;SDS011;58098;51.680;5.134;2022-09-09T11:48:41;10.85;;;2.75;;
70545;SDS011;58098;51.680;5.134;2022-09-09T11:54:01;12.70;;;2.80;;
70545;SDS011;58098;51.680;5.134;2022-09-09T11:56:31;7.70;;;2.45;;
70545;SDS011;58098;51.680;5.134;2022-09-09T11:59:02;8.80;;;2.40;;
70545;SDS011;58098;51.680;5.134;2022-09-09T12:04:15;6.90;;;2.73;;
70545;SDS011;58098;51.680;5.134;2022-09-09T12:06:45;7.03;;;2.63;;
70545;SDS011;58098;51.680;5.134;2022-09-09T12:11:42;8.45;;;2.30;;
70545;SDS011;58098;51.680;5.134;2022-09-09T12:14:17;7.63;;;2.60;;
70545;SDS011;58098;51.680;5.134;2022-09-09T12:16:43;9.65;;;2.55;;
70545;SDS011;58098;51.680;5.134;2022-09-09T12:21:40;7.55;;;2.55;;
70545;SDS011;58098;51.680;5.134;2022-09-09T12:24:09;9.37;;;2.23;;
70545;SDS011;58098;51.680;5.134;2022-09-09T12:26:41;10.75;;;2.47;;
70545;SDS011;58098;51.680;5.134;2022-09-09T12:29:16;8.13;;;2.83;;
70545;SDS011;58098;51.680;5.134;2022-09-09T12:36:44;8.33;;;2.00;;
70545;SDS011;58098;51.680;5.134;2022-09-09T12:42:18;5.28;;;2.33;;
70545;SDS011;58098;51.680;5.134;2022-09-09T12:44:50;9.88;;;2.10;;
70545;SDS011;58098;51.680;5.134;2022-09-09T12:47:16;8.77;;;2.10;;
70545;SDS011;58098;51.680;5.134;2022-09-09T12:49:41;6.53;;;2.60;;
70545;SDS011;58098;51.680;5.134;2022-09-09T12:54:43;7.10;;;2.30;;
70545;SDS011;58098;51.680;5.134;2022-09-09T12:57:11;6.23;;;2.07;;
70545;SDS011;58098;51.680;5.134;2022-09-09T12:59:38;8.57;;;2.20;;
70545;SDS011;58098;51.680;5.134;2022-09-09T13:02:26;6.75;;;2.42;;
70545;SDS011;58098;51.680;5.134;2022-09-09T13:04:49;9.18;;;2.10;;
70545;SDS011;58098;51.680;5.134;2022-09-09T13:07:15;6.53;;;2.22;;
70545;SDS011;58098;51.680;5.134;2022-09-09T13:09:41;6.10;;;2.43;;
70545;SDS011;58098;51.680;5.134;2022-09-09T13:12:09;7.87;;;2.47;;
70545;SDS011;58098;51.680;5.134;2022-09-09T13:14:38;9.25;;;2.45;;
70545;SDS011;58098;51.680;5.134;2022-09-09T13:17:04;6.20;;;2.50;;
70545;SDS011;58098;51.680;5.134;2022-09-09T13:19:30;7.20;;;2.17;;
70545;SDS011;58098;51.680;5.134;2022-09-09T13:21:57;7.05;;;3.33;;
70545;SDS011;58098;51.680;5.134;2022-09-09T13:24:24;8.17;;;2.33;;
70545;SDS011;58098;51.680;5.134;2022-09-09T13:26:56;6.10;;;2.40;;
70545;SDS011;58098;51.680;5.134;2022-09-09T13:29:21;8.18;;;2.10;;
70545;SDS011;58098;51.680;5.134;2022-09-09T13:31:46;5.17;;;2.17;;
70545;SDS011;58098;51.680;5.134;2022-09-09T13:34:28;10.40;;;2.30;;
70545;SDS011;58098;51.680;5.134;2022-09-09T13:37:00;7.40;;;1.92;;
70545;SDS011;58098;51.680;5.134;2022-09-09T13:39:27;8.60;;;2.17;;
70545;SDS011;58098;51.680;5.134;2022-09-09T13:41:52;8.07;;;2.20;;
70545;SDS011;58098;51.680;5.134;2022-09-09T13:44:28;5.47;;;2.00;;
70545;SDS011;58098;51.680;5.134;2022-09-09T13:47:04;6.90;;;2.10;;
70545;SDS011;58098;51.680;5.134;2022-09-09T13:49:30;6.20;;;2.00;;
70545;SDS011;58098;51.680;5.134;2022-09-09T13:52:05;4.30;;;1.63;;
70545;SDS011;58098;51.680;5.134;2022-09-09T13:54:32;6.20;;;1.90;;
70545;SDS011;58098;51.680;5.134;2022-09-09T13:56:57;6.00;;;2.03;;
70545;SDS011;58098;51.680;5.134;2022-09-09T13:59:22;6.33;;;1.60;;
70545;SDS011;58098;51.680;5.134;2022-09-09T14:01:49;7.70;;;1.80;;
70545;SDS011;58098;51.680;5.134;2022-09-09T14:04:15;3.53;;;1.80;;
70545;SDS011;58098;51.680;5.134;2022-09-09T14:06:40;4.72;;;1.70;;
70545;SDS011;58098;51.680;5.134;2022-09-09T14:09:06;8.43;;;1.90;;
70545;SDS011;58098;51.680;5.134;2022-09-09T14:11:32;3.87;;;2.00;;
70545;SDS011;58098;51.680;5.134;2022-09-09T14:13:57;4.97;;;1.47;;
70545;SDS011;58098;51.680;5.134;2022-09-09T14:16:22;3.40;;;1.60;;
70545;SDS011;58098;51.680;5.134;2022-09-09T14:18:47;5.97;;;1.90;;
70545;SDS011;58098;51.680;5.134;2022-09-09T14:21:13;3.50;;;1.60;;
70545;SDS011;58098;51.680;5.134;2022-09-09T14:23:38;3.15;;;1.50;;
70545;SDS011;58098;51.680;5.134;2022-09-09T14:26:04;5.23;;;1.80;;
70545;SDS011;58098;51.680;5.134;2022-09-09T14:28:29;4.93;;;1.75;;
70545;SDS011;58098;51.680;5.134;2022-09-09T14:30:55;3.80;;;1.50;;
70545;SDS011;58098;51.680;5.134;2022-09-09T14:33:23;4.50;;;1.67;;
70545;SDS011;58098;51.680;5.134;2022-09-09T14:35:54;3.50;;;1.60;;
70545;SDS011;58098;51.680;5.134;2022-09-09T14:38:20;6.55;;;2.10;;
70545;SDS011;58098;51.680;5.134;2022-09-09T14:40:45;5.85;;;1.73;;
70545;SDS011;58098;51.680;5.134;2022-09-09T14:43:11;4.35;;;1.70;;
70545;SDS011;58098;51.680;5.134;2022-09-09T14:45:37;4.13;;;1.40;;
70545;SDS011;58098;51.680;5.134;2022-09-09T14:48:03;5.37;;;1.77;;
70545;SDS011;58098;51.680;5.134;2022-09-09T14:50:28;5.57;;;1.42;;
70545;SDS011;58098;51.680;5.134;2022-09-09T14:52:53;2.70;;;1.70;;
70545;SDS011;58098;51.680;5.134;2022-09-09T14:55:18;6.20;;;1.40;;
70545;SDS011;58098;51.680;5.134;2022-09-09T14:57:44;6.53;;;1.83;;
70545;SDS011;58098;51.680;5.134;2022-09-09T15:00:10;6.63;;;1.57;;
70545;SDS011;58098;51.680;5.134;2022-09-09T15:02:36;4.70;;;1.90;;
70545;SDS011;58098;51.680;5.134;2022-09-09T15:05:01;6.57;;;1.93;;
70545;SDS011;58098;51.680;5.134;2022-09-09T15:07:27;5.07;;;1.87;;
70545;SDS011;58098;51.680;5.134;2022-09-09T15:09:53;3.25;;;1.73;;
70545;SDS011;58098;51.680;5.134;2022-09-09T15:12:19;6.45;;;1.98;;
70545;SDS011;58098;51.680;5.134;2022-09-09T15:14:45;3.38;;;1.58;;
70545;SDS011;58098;51.680;5.134;2022-09-09T15:17:10;2.53;;;1.67;;
70545;SDS011;58098;51.680;5.134;2022-09-09T15:19:36;3.10;;;1.80;;
70545;SDS011;58098;51.680;5.134;2022-09-09T15:22:01;6.73;;;2.20;;
70545;SDS011;58098;51.680;5.134;2022-09-09T15:24:26;7.03;;;2.10;;
70545;SDS011;58098;51.680;5.134;2022-09-09T15:26:51;3.72;;;1.90;;
70545;SDS011;58098;51.680;5.134;2022-09-09T15:29:17;3.50;;;1.87;;
70545;SDS011;58098;51.680;5.134;2022-09-09T15:31:42;5.33;;;1.90;;
70545;SDS011;58098;51.680;5.134;2022-09-09T15:34:07;4.27;;;1.90;;
70545;SDS011;58098;51.680;5.134;2022-09-09T15:36:37;2.87;;;1.73;;
70545;SDS011;58098;51.680;5.134;2022-09-09T15:39:03;3.90;;;1.50;;
70545;SDS011;58098;51.680;5.134;2022-09-09T15:41:29;5.32;;;1.45;;
70545;SDS011;58098;51.680;5.134;2022-09-09T15:43:56;6.03;;;1.95;;
70545;SDS011;58098;51.680;5.134;2022-09-09T15:46:31;4.77;;;1.90;;
70545;SDS011;58098;51.680;5.134;2022-09-09T15:48:58;4.60;;;1.77;;
70545;SDS011;58098;51.680;5.134;2022-09-09T15:51:24;6.72;;;1.58;;
70545;SDS011;58098;51.680;5.134;2022-09-09T15:53:53;2.97;;;1.87;;
70545;SDS011;58098;51.680;5.134;2022-09-09T15:56:20;4.03;;;1.80;;
70545;SDS011;58098;51.680;5.134;2022-09-09T15:58:45;5.00;;;1.40;;
70545;SDS011;58098;51.680;5.134;2022-09-09T16:01:10;4.13;;;1.43;;
70545;SDS011;58098;51.680;5.134;2022-09-09T16:03:41;3.30;;;1.30;;
70545;SDS011;58098;51.680;5.134;2022-09-09T16:06:07;2.88;;;1.70;;
70545;SDS011;58098;51.680;5.134;2022-09-09T16:08:34;4.43;;;1.40;;
70545;SDS011;58098;51.680;5.134;2022-09-09T16:13:32;4.20;;;1.50;;
70545;SDS011;58098;51.680;5.134;2022-09-09T16:15:58;4.13;;;1.45;;
70545;SDS011;58098;51.680;5.134;2022-09-09T16:18:23;4.90;;;1.70;;
70545;SDS011;58098;51.680;5.134;2022-09-09T16:20:55;3.53;;;1.20;;
70545;SDS011;58098;51.680;5.134;2022-09-09T16:23:20;7.33;;;1.83;;
70545;SDS011;58098;51.680;5.134;2022-09-09T16:25:52;3.60;;;1.33;;
70545;SDS011;58098;51.680;5.134;2022-09-09T16:28:18;3.85;;;1.60;;
70545;SDS011;58098;51.680;5.134;2022-09-09T16:30:43;6.30;;;2.10;;